AXB512 VABB-OMDB
Flight info
| Callsign | AXB512 |
|---|---|
| Flight time | N/A |
| Altitude | 32000 |
| Route | RAXET2A SAKUN V2 SUGID N571 VUSET A454 PASOV B540 MIVEK P574 IMPED DCT ULDOT DCT SEDPO DCT MODUS |
| Aircraft | B738/M-SDE2E3FGHIRWXY/LB1 |
Departure
| Time | 2026-05-06 13:54 |
|---|---|
| Airport | Chhatrapati Shivaji Maharaj International Airport (VABB) |
Arrival
| Time | N/A |
|---|---|
| Airport | Dubai International Airport (OMDB) |
| Time | Latitude | Longitude | Altitude | Speed | Heading |
|---|---|---|---|---|---|
| 2026-05-06 13:24 | 19.09484 | 72.87717 | 32 ft | 0 kts | 309° |
| 2026-05-06 13:39 | 19.09483 | 72.87719 | 32 ft | 2 kts | 309° |
| 2026-05-06 13:40 | 19.09472 | 72.87732 | 32 ft | 2 kts | 309° |
| 2026-05-06 13:40 | 19.09462 | 72.87745 | 32 ft | 2 kts | 309° |
| 2026-05-06 13:40 | 19.09452 | 72.87759 | 29 ft | 2 kts | 286° |
| 2026-05-06 13:40 | 19.09455 | 72.87775 | 31 ft | 2 kts | 208° |
| 2026-05-06 13:41 | 19.09462 | 72.87778 | 32 ft | 0 kts | 191° |
| 2026-05-06 13:46 | 19.09449 | 72.87775 | 31 ft | 4 kts | 190° |
| 2026-05-06 13:46 | 19.09425 | 72.87768 | 31 ft | 1 kts | 200° |
| 2026-05-06 13:46 | 19.09419 | 72.87766 | 32 ft | 1 kts | 200° |
| 2026-05-06 13:46 | 19.09413 | 72.87763 | 32 ft | 1 kts | 200° |
| 2026-05-06 13:47 | 19.09407 | 72.87761 | 32 ft | 1 kts | 200° |
| 2026-05-06 13:47 | 19.09401 | 72.87759 | 32 ft | 1 kts | 200° |
| 2026-05-06 13:47 | 19.09396 | 72.87757 | 32 ft | 1 kts | 200° |
| 2026-05-06 13:47 | 19.09390 | 72.87755 | 32 ft | 1 kts | 200° |
| 2026-05-06 13:48 | 19.09385 | 72.87753 | 32 ft | 1 kts | 200° |
| 2026-05-06 13:48 | 19.09380 | 72.87751 | 32 ft | 1 kts | 200° |
| 2026-05-06 13:48 | 19.09373 | 72.87752 | 31 ft | 2 kts | 174° |
| 2026-05-06 13:48 | 19.09352 | 72.87754 | 32 ft | 5 kts | 174° |
| 2026-05-06 13:49 | 19.09302 | 72.87758 | 32 ft | 9 kts | 178° |
| 2026-05-06 13:49 | 19.09226 | 72.87758 | 32 ft | 12 kts | 180° |
| 2026-05-06 13:49 | 19.09144 | 72.87782 | 32 ft | 12 kts | 145° |
| 2026-05-06 13:49 | 19.09065 | 72.87806 | 32 ft | 11 kts | 178° |
| 2026-05-06 13:50 | 19.09003 | 72.87806 | 32 ft | 5 kts | 181° |
| 2026-05-06 13:50 | 19.09002 | 72.87806 | 32 ft | 0 kts | 181° |
| 2026-05-06 13:52 | 19.08993 | 72.87806 | 32 ft | 3 kts | 180° |
| 2026-05-06 13:52 | 19.08957 | 72.87806 | 32 ft | 7 kts | 182° |
| 2026-05-06 13:52 | 19.08902 | 72.87778 | 31 ft | 11 kts | 228° |
| 2026-05-06 13:52 | 19.08886 | 72.87730 | 31 ft | 0 kts | 265° |
| 2026-05-06 13:53 | 19.08886 | 72.87712 | 31 ft | 11 kts | 267° |
| 2026-05-06 13:53 | 19.08879 | 72.87334 | 34 ft | 92 kts | 269° |
| 2026-05-06 13:53 | 19.08873 | 72.86395 | 32 ft | 161 kts | 272° |
| 2026-05-06 13:53 | 19.08905 | 72.85079 | 453 ft | 192 kts | 274° |
| 2026-05-06 13:54 | 19.08971 | 72.83573 | 986 ft | 215 kts | 275° |
| 2026-05-06 13:54 | 19.09033 | 72.81902 | 1427 ft | 241 kts | 275° |
| 2026-05-06 13:54 | 19.09149 | 72.80046 | 1870 ft | 260 kts | 276° |
| 2026-05-06 13:54 | 19.09280 | 72.78080 | 2159 ft | 279 kts | 276° |
| 2026-05-06 13:55 | 19.09417 | 72.75854 | 1474 ft | 334 kts | 274° |
| 2026-05-06 13:55 | 19.09354 | 72.73320 | 1571 ft | 336 kts | 269° |
| 2026-05-06 13:55 | 19.09339 | 72.70999 | 2229 ft | 296 kts | 275° |
| 2026-05-06 13:55 | 19.09459 | 72.68949 | 2651 ft | 264 kts | 277° |
| 2026-05-06 13:56 | 19.09617 | 72.67104 | 2913 ft | 241 kts | 278° |
| 2026-05-06 13:56 | 19.09785 | 72.65373 | 3051 ft | 238 kts | 279° |
| 2026-05-06 13:56 | 19.09975 | 72.63547 | 3242 ft | 263 kts | 279° |
| 2026-05-06 13:56 | 19.10180 | 72.61607 | 3741 ft | 273 kts | 279° |
| 2026-05-06 13:57 | 19.10394 | 72.59583 | 4422 ft | 278 kts | 279° |
| 2026-05-06 13:57 | 19.10610 | 72.57539 | 5134 ft | 281 kts | 278° |
| 2026-05-06 13:57 | 19.10829 | 72.55483 | 5945 ft | 280 kts | 277° |
| 2026-05-06 13:57 | 19.11046 | 72.53431 | 6673 ft | 282 kts | 277° |
| 2026-05-06 13:58 | 19.11266 | 72.51365 | 7348 ft | 285 kts | 276° |
| 2026-05-06 13:58 | 19.11486 | 72.49296 | 8035 ft | 288 kts | 276° |
| 2026-05-06 13:58 | 19.11715 | 72.47149 | 8746 ft | 290 kts | 275° |
| 2026-05-06 13:58 | 19.11938 | 72.45049 | 9452 ft | 293 kts | 275° |
| 2026-05-06 13:59 | 19.12167 | 72.42895 | 10104 ft | 296 kts | 275° |
| 2026-05-06 13:59 | 19.12399 | 72.40719 | 10716 ft | 300 kts | 275° |
| 2026-05-06 13:59 | 19.12633 | 72.38516 | 11353 ft | 303 kts | 276° |
| 2026-05-06 13:59 | 19.12870 | 72.36287 | 11968 ft | 307 kts | 276° |
| 2026-05-06 14:00 | 19.13110 | 72.34023 | 12580 ft | 311 kts | 276° |
| 2026-05-06 14:00 | 19.13353 | 72.31733 | 13202 ft | 315 kts | 277° |
| 2026-05-06 14:00 | 19.13598 | 72.29421 | 13788 ft | 318 kts | 277° |
| 2026-05-06 14:00 | 19.13845 | 72.27085 | 14376 ft | 320 kts | 277° |
| 2026-05-06 14:01 | 19.14092 | 72.24746 | 15006 ft | 320 kts | 277° |
| 2026-05-06 14:01 | 19.14339 | 72.22401 | 15627 ft | 321 kts | 277° |
| 2026-05-06 14:01 | 19.14587 | 72.20049 | 16215 ft | 323 kts | 277° |
| 2026-05-06 14:01 | 19.14836 | 72.17679 | 16808 ft | 324 kts | 277° |
| 2026-05-06 14:02 | 19.15086 | 72.15300 | 17399 ft | 326 kts | 277° |
| 2026-05-06 14:02 | 19.15337 | 72.12915 | 17985 ft | 328 kts | 277° |
| 2026-05-06 14:02 | 19.15600 | 72.10544 | 18500 ft | 328 kts | 281° |
| 2026-05-06 14:02 | 19.16320 | 72.08265 | 18981 ft | 328 kts | 297° |
| 2026-05-06 14:03 | 19.17370 | 72.06123 | 19472 ft | 329 kts | 298° |
| 2026-05-06 14:03 | 19.18474 | 72.03981 | 19939 ft | 332 kts | 299° |
| 2026-05-06 14:03 | 19.19589 | 72.01836 | 20402 ft | 334 kts | 299° |
| 2026-05-06 14:03 | 19.20705 | 71.99678 | 20886 ft | 336 kts | 298° |
| 2026-05-06 14:04 | 19.21821 | 71.97504 | 21358 ft | 337 kts | 298° |
| 2026-05-06 14:04 | 19.22938 | 71.95313 | 21808 ft | 339 kts | 298° |
| 2026-05-06 14:04 | 19.24057 | 71.93108 | 22289 ft | 340 kts | 298° |
| 2026-05-06 14:04 | 19.25173 | 71.90900 | 22776 ft | 341 kts | 298° |
| 2026-05-06 14:05 | 19.26293 | 71.88680 | 23231 ft | 342 kts | 298° |
| 2026-05-06 14:05 | 19.27418 | 71.86448 | 23616 ft | 344 kts | 298° |
| 2026-05-06 14:05 | 19.28533 | 71.84232 | 23954 ft | 347 kts | 298° |
| 2026-05-06 14:05 | 19.29671 | 71.81970 | 24285 ft | 349 kts | 298° |
| 2026-05-06 14:06 | 19.30816 | 71.79691 | 24623 ft | 351 kts | 298° |
| 2026-05-06 14:06 | 19.31965 | 71.77403 | 24966 ft | 354 kts | 298° |
| 2026-05-06 14:06 | 19.33123 | 71.75098 | 25309 ft | 356 kts | 298° |
| 2026-05-06 14:06 | 19.34289 | 71.72776 | 25648 ft | 358 kts | 298° |
| 2026-05-06 14:07 | 19.35458 | 71.70444 | 25984 ft | 360 kts | 298° |
| 2026-05-06 14:07 | 19.36639 | 71.68091 | 26329 ft | 362 kts | 298° |
| 2026-05-06 14:07 | 19.37818 | 71.65738 | 26749 ft | 361 kts | 298° |
| 2026-05-06 14:07 | 19.38993 | 71.63393 | 27200 ft | 359 kts | 298° |
| 2026-05-06 14:08 | 19.40162 | 71.61059 | 27609 ft | 359 kts | 298° |
| 2026-05-06 14:08 | 19.41332 | 71.58723 | 27990 ft | 359 kts | 298° |
| 2026-05-06 14:08 | 19.42499 | 71.56392 | 28393 ft | 358 kts | 298° |
| 2026-05-06 14:08 | 19.43664 | 71.54064 | 28799 ft | 357 kts | 298° |
| 2026-05-06 14:09 | 19.44827 | 71.51737 | 29173 ft | 357 kts | 298° |
| 2026-05-06 14:09 | 19.45990 | 71.49411 | 29549 ft | 357 kts | 298° |
| 2026-05-06 14:09 | 19.47150 | 71.47090 | 29915 ft | 357 kts | 298° |
| 2026-05-06 14:09 | 19.48311 | 71.44766 | 30230 ft | 356 kts | 298° |
| 2026-05-06 14:10 | 19.49470 | 71.42444 | 30530 ft | 356 kts | 298° |
| 2026-05-06 14:10 | 19.50627 | 71.40126 | 30811 ft | 356 kts | 298° |
| 2026-05-06 14:10 | 19.51783 | 71.37809 | 31098 ft | 355 kts | 298° |
| 2026-05-06 14:10 | 19.52938 | 71.35493 | 31383 ft | 355 kts | 298° |
| 2026-05-06 14:11 | 19.54096 | 71.33169 | 31641 ft | 356 kts | 298° |
| 2026-05-06 14:11 | 19.55253 | 71.30848 | 31806 ft | 358 kts | 298° |
| 2026-05-06 14:11 | 19.57620 | 71.26095 | 31800 ft | 370 kts | 298° |
| 2026-05-06 14:12 | 19.60047 | 71.21219 | 31807 ft | 382 kts | 298° |
| 2026-05-06 14:12 | 19.62192 | 71.15974 | 31813 ft | 394 kts | 289° |
| 2026-05-06 14:13 | 19.63863 | 71.10357 | 31811 ft | 405 kts | 288° |
| 2026-05-06 14:13 | 19.65567 | 71.04578 | 31807 ft | 416 kts | 288° |
| 2026-05-06 14:14 | 19.67372 | 70.98667 | 31809 ft | 425 kts | 289° |
| 2026-05-06 14:14 | 19.69242 | 70.92639 | 31808 ft | 434 kts | 289° |
| 2026-05-06 14:15 | 19.71153 | 70.86498 | 31807 ft | 442 kts | 289° |